createdAt,value
2017-08-17T00:02:17.627Z,101120
2017-08-17T00:04:45.767Z,101118
2017-08-17T00:07:15.551Z,101116
2017-08-17T00:09:43.667Z,101124
2017-08-17T00:12:14.199Z,101117
2017-08-17T00:14:42.454Z,101124
2017-08-17T00:17:16.482Z,101108
2017-08-17T00:19:44.590Z,101108
2017-08-17T00:22:16.201Z,101100
2017-08-17T00:24:44.296Z,101102
2017-08-17T00:27:12.387Z,101109
2017-08-17T00:29:40.499Z,101108
2017-08-17T00:32:08.603Z,101104
2017-08-17T00:34:36.702Z,101095
2017-08-17T00:37:04.803Z,101095
2017-08-17T00:39:32.908Z,101103
2017-08-17T00:42:01.779Z,101104
2017-08-17T00:44:29.882Z,101094
2017-08-17T00:47:01.244Z,101100
2017-08-17T00:49:29.327Z,101096
2017-08-17T00:51:57.425Z,101081
2017-08-17T00:54:25.518Z,101085
2017-08-17T00:56:53.604Z,101095
2017-08-17T00:59:24.962Z,101081
2017-08-17T01:01:53.069Z,101103
2017-08-17T01:04:21.166Z,101094
2017-08-17T01:06:49.243Z,101088
2017-08-17T01:09:17.359Z,101080
2017-08-17T01:11:46.385Z,101084
2017-08-17T01:14:14.495Z,101086
2017-08-17T01:16:42.584Z,101085
2017-08-17T01:19:10.680Z,101069
2017-08-17T01:21:38.771Z,101069
2017-08-17T01:24:06.875Z,101068
2017-08-17T01:26:34.983Z,101069
2017-08-17T01:29:03.836Z,101067
2017-08-17T01:31:31.939Z,101066
2017-08-17T01:34:00.043Z,101065
2017-08-17T01:36:28.155Z,101067
2017-08-17T01:38:56.272Z,101062
2017-08-17T01:41:24.359Z,101058
2017-08-17T01:43:52.443Z,101062
2017-08-17T01:46:24.198Z,101055
2017-08-17T01:48:52.319Z,101062
2017-08-17T01:51:20.403Z,101063
2017-08-17T01:53:49.291Z,101058
2017-08-17T01:56:18.170Z,101069
2017-08-17T01:58:46.267Z,101065
2017-08-17T02:01:15.122Z,101058
2017-08-17T02:03:43.215Z,101055
2017-08-17T02:06:12.098Z,101050
2017-08-17T02:08:40.191Z,101059
2017-08-17T02:11:09.059Z,101064
2017-08-17T02:13:37.145Z,101072
2017-08-17T02:16:05.239Z,101077
2017-08-17T02:18:33.331Z,101087
2017-08-17T02:21:01.420Z,101091
2017-08-17T02:23:32.560Z,101096
2017-08-17T02:26:00.682Z,101095
2017-08-17T02:28:28.779Z,101092
2017-08-17T02:30:56.874Z,101086
2017-08-17T02:33:24.971Z,101091
2017-08-17T02:35:53.071Z,101086
2017-08-17T02:38:21.167Z,101096
2017-08-17T02:40:49.271Z,101077
2017-08-17T02:43:17.355Z,101091
2017-08-17T02:45:45.467Z,101089
2017-08-17T02:48:13.555Z,101075
2017-08-17T02:50:41.671Z,101075
2017-08-17T02:53:09.748Z,101080
2017-08-17T02:55:38.043Z,101071
2017-08-17T02:58:07.058Z,101067
2017-08-17T03:00:35.135Z,101056
2017-08-17T03:03:03.260Z,101067
2017-08-17T03:05:31.343Z,101064
2017-08-17T03:07:59.443Z,101059
2017-08-17T03:10:27.530Z,101053
2017-08-17T03:12:55.608Z,101058
2017-08-17T03:15:23.736Z,101069
2017-08-17T03:17:55.284Z,101061
2017-08-17T03:20:23.396Z,101063
2017-08-17T03:22:51.472Z,101053
2017-08-17T03:25:19.566Z,101053
2017-08-17T03:27:47.675Z,101058
2017-08-17T03:30:18.792Z,101060
2017-08-17T03:32:46.910Z,101050
2017-08-17T03:35:15.780Z,101048
2017-08-17T03:37:47.119Z,101049
2017-08-17T03:40:15.204Z,101046
2017-08-17T03:42:44.100Z,101032
2017-08-17T03:45:12.404Z,101041
2017-08-17T03:47:40.487Z,101051
2017-08-17T03:50:08.593Z,101052
2017-08-17T03:52:36.689Z,101046
2017-08-17T03:55:04.804Z,101051
2017-08-17T03:57:32.888Z,101043
2017-08-17T04:00:01.003Z,101046
2017-08-17T04:02:29.114Z,101038
2017-08-17T04:04:57.199Z,101040
2017-08-17T04:07:26.019Z,101039
2017-08-17T04:09:54.114Z,101038
2017-08-17T04:12:22.208Z,101038
2017-08-17T04:14:50.353Z,101029
2017-08-17T04:17:18.439Z,101037
2017-08-17T04:19:49.775Z,101029
2017-08-17T04:22:17.860Z,101026
2017-08-17T04:24:46.710Z,101025
2017-08-17T04:27:14.826Z,101021
2017-08-17T04:29:43.698Z,101020
2017-08-17T04:32:11.818Z,101030
2017-08-17T04:34:40.142Z,101020
2017-08-17T04:37:08.244Z,101009
2017-08-17T04:39:37.246Z,100999
2017-08-17T04:42:05.355Z,101003
2017-08-17T04:44:37.005Z,100998
2017-08-17T04:47:05.100Z,100985
2017-08-17T04:49:33.232Z,100986
2017-08-17T04:52:01.321Z,100994
2017-08-17T04:54:29.408Z,100991
2017-08-17T04:57:21.835Z,100982
2017-08-17T04:59:49.955Z,100986
2017-08-17T05:02:18.034Z,100980
2017-08-17T05:04:46.151Z,100980
2017-08-17T05:07:14.231Z,100985
2017-08-17T05:09:42.324Z,100978
2017-08-17T05:12:10.428Z,100988
2017-08-17T05:14:39.284Z,100985
2017-08-17T05:17:07.399Z,100988
2017-08-17T05:19:39.887Z,100991
2017-08-17T05:22:07.983Z,100992
2017-08-17T05:24:36.082Z,100986
2017-08-17T05:27:04.187Z,100980
2017-08-17T05:29:33.055Z,100979
2017-08-17T05:32:01.151Z,100971
2017-08-17T05:34:33.452Z,100976
2017-08-17T05:37:01.941Z,100975
2017-08-17T05:39:30.043Z,100971
2017-08-17T05:41:58.139Z,100967
2017-08-17T05:44:26.248Z,100958
2017-08-17T05:46:54.354Z,100955
2017-08-17T05:49:22.440Z,100946
2017-08-17T05:51:50.555Z,100950
2017-08-17T05:54:18.647Z,100957
2017-08-17T05:56:50.288Z,100955
2017-08-17T05:59:21.859Z,100954
2017-08-17T06:01:50.688Z,100960
2017-08-17T06:04:18.767Z,100949
2017-08-17T06:06:46.854Z,100958
2017-08-17T06:09:15.734Z,100958
2017-08-17T06:11:43.807Z,100959
2017-08-17T06:14:11.883Z,100964
2017-08-17T06:16:40.755Z,100959
2017-08-17T06:19:08.843Z,100957
2017-08-17T06:21:37.715Z,100959
2017-08-17T06:24:05.827Z,100960
2017-08-17T06:26:33.922Z,100968
2017-08-17T06:29:02.024Z,100960
2017-08-17T06:31:30.112Z,100964
2017-08-17T06:34:01.702Z,100960
2017-08-17T06:36:29.804Z,100955
2017-08-17T06:38:57.917Z,100947
2017-08-17T06:41:29.039Z,100959
2017-08-17T06:43:57.145Z,100959
2017-08-17T06:46:25.255Z,100951
2017-08-17T06:48:53.382Z,100958
2017-08-17T06:51:22.262Z,100958
2017-08-17T06:53:50.367Z,100963
2017-08-17T06:56:22.115Z,100963
2017-08-17T06:58:50.210Z,100965
2017-08-17T07:01:18.308Z,100957
2017-08-17T07:03:46.424Z,100951
2017-08-17T07:06:15.276Z,100951
2017-08-17T07:08:43.359Z,100946
2017-08-17T07:11:11.519Z,100947
2017-08-17T07:13:40.360Z,100952
2017-08-17T07:16:09.239Z,100952
2017-08-17T07:18:38.099Z,100955
2017-08-17T07:21:06.211Z,100955
2017-08-17T07:23:34.307Z,100949
2017-08-17T07:26:02.399Z,100954
2017-08-17T07:28:30.528Z,100958
2017-08-17T07:30:59.414Z,100947
2017-08-17T07:33:28.376Z,100942
2017-08-17T07:35:56.487Z,100933
2017-08-17T07:38:27.944Z,100933
2017-08-17T07:40:56.032Z,100933
2017-08-17T07:43:24.103Z,100940
2017-08-17T07:45:52.267Z,100938
2017-08-17T07:48:23.691Z,100939
2017-08-17T07:50:51.796Z,100934
2017-08-17T07:53:19.931Z,100931
2017-08-17T07:55:48.012Z,100929
2017-08-17T07:58:16.851Z,100944
2017-08-17T08:00:44.967Z,100939
2017-08-17T08:03:13.860Z,100934
2017-08-17T08:05:41.969Z,100931
2017-08-17T08:08:10.072Z,100921
2017-08-17T08:10:38.173Z,100929
2017-08-17T08:13:06.287Z,100925
2017-08-17T08:15:34.413Z,100935
2017-08-17T08:18:02.489Z,100934
2017-08-17T08:20:30.594Z,100920
2017-08-17T08:22:58.691Z,100919
2017-08-17T08:25:26.775Z,100924
2017-08-17T08:27:54.871Z,100925
2017-08-17T08:30:22.985Z,100921
2017-08-17T08:32:51.095Z,100928
2017-08-17T08:35:19.165Z,100925
2017-08-17T08:37:47.258Z,100930
2017-08-17T08:40:15.376Z,100934
2017-08-17T08:42:43.456Z,100931
2017-08-17T08:45:11.556Z,100920
2017-08-17T08:47:39.647Z,100929
2017-08-17T08:50:07.735Z,100920
2017-08-17T08:52:35.843Z,100917
2017-08-17T08:55:03.914Z,100911
2017-08-17T08:57:32.010Z,100915
2017-08-17T09:00:00.102Z,100907
2017-08-17T09:02:28.191Z,100908
2017-08-17T09:04:56.267Z,100900
2017-08-17T09:07:24.370Z,100894
2017-08-17T09:09:53.132Z,100893
2017-08-17T09:12:21.990Z,100884
2017-08-17T09:14:50.083Z,100884
2017-08-17T09:17:21.239Z,100886
2017-08-17T09:19:50.145Z,100896
2017-08-17T09:22:19.033Z,100886
2017-08-17T09:24:47.879Z,100879
2017-08-17T09:27:16.035Z,100878
2017-08-17T09:29:44.182Z,100877
2017-08-17T09:32:13.521Z,100872
2017-08-17T09:34:41.627Z,100864
2017-08-17T09:37:09.713Z,100868
2017-08-17T09:39:37.796Z,100867
2017-08-17T09:42:05.872Z,100877
2017-08-17T09:44:37.682Z,100874
2017-08-17T09:47:05.763Z,100872
2017-08-17T09:49:33.873Z,100867
2017-08-17T09:52:02.012Z,100864
2017-08-17T09:54:30.075Z,100869
2017-08-17T09:56:58.146Z,100865
2017-08-17T09:59:26.300Z,100854
2017-08-17T10:01:54.483Z,100854
2017-08-17T10:04:26.224Z,100844
2017-08-17T10:06:54.328Z,100831
2017-08-17T10:09:22.458Z,100833
2017-08-17T10:11:50.538Z,100843
2017-08-17T10:14:18.616Z,100844
2017-08-17T10:16:46.718Z,100838
2017-08-17T10:19:14.816Z,100844
2017-08-17T10:21:42.915Z,100829
2017-08-17T10:24:11.008Z,100838
2017-08-17T10:26:39.167Z,100829
2017-08-17T10:29:07.247Z,100827
2017-08-17T10:31:35.358Z,100815
2017-08-17T10:34:03.439Z,100821
2017-08-17T10:36:31.519Z,100820
2017-08-17T10:38:59.627Z,100822
2017-08-17T10:41:27.720Z,100816
2017-08-17T10:43:55.810Z,100820
2017-08-17T10:46:23.927Z,100824
2017-08-17T10:48:52.018Z,100828
2017-08-17T10:51:20.262Z,100819
2017-08-17T10:53:48.342Z,100809
2017-08-17T10:56:16.465Z,100820
2017-08-17T10:58:44.547Z,100820
2017-08-17T11:01:12.619Z,100822
2017-08-17T11:03:40.716Z,100823
2017-08-17T11:06:08.792Z,100820
2017-08-17T11:08:36.918Z,100816
2017-08-17T11:11:05.035Z,100826
2017-08-17T11:13:34.873Z,100821
2017-08-17T11:16:02.994Z,100827
2017-08-17T11:18:31.067Z,100827
2017-08-17T11:20:59.139Z,100824
2017-08-17T11:23:27.242Z,100821
2017-08-17T11:25:56.105Z,100821
2017-08-17T11:28:24.175Z,100823
2017-08-17T11:30:52.270Z,100828
2017-08-17T11:33:24.257Z,100835
2017-08-17T11:35:52.428Z,100820
2017-08-17T11:38:20.532Z,100816
2017-08-17T11:40:48.625Z,100819
2017-08-17T11:43:16.892Z,100814
2017-08-17T11:45:44.988Z,100814
2017-08-17T11:48:14.131Z,100812
2017-08-17T11:50:42.255Z,100806
2017-08-17T11:53:10.323Z,100803
2017-08-17T11:55:38.415Z,100798
2017-08-17T11:58:07.283Z,100802
2017-08-17T12:00:35.435Z,100811
2017-08-17T12:03:03.519Z,100797
2017-08-17T12:05:31.622Z,100794
2017-08-17T12:07:59.723Z,100803
2017-08-17T12:10:28.720Z,100809
2017-08-17T12:12:56.796Z,100809
2017-08-17T12:15:24.886Z,100809
2017-08-17T12:17:52.993Z,100814
2017-08-17T12:20:21.133Z,100821
2017-08-17T12:22:51.124Z,100822
2017-08-17T12:25:19.216Z,100828
2017-08-17T12:27:50.258Z,100839
2017-08-17T12:30:18.342Z,100847
2017-08-17T12:32:47.314Z,100849
2017-08-17T12:35:15.420Z,100848
2017-08-17T12:37:43.534Z,100852
2017-08-17T12:40:12.395Z,100847
2017-08-17T12:42:40.480Z,100856
2017-08-17T12:45:09.355Z,100859
2017-08-17T12:47:37.444Z,100852
2017-08-17T12:50:06.415Z,100857
2017-08-17T12:52:44.363Z,100864
2017-08-17T12:55:12.463Z,100861
2017-08-17T12:57:40.551Z,100857
2017-08-17T13:00:08.656Z,100869
2017-08-17T13:02:36.730Z,100870
2017-08-17T13:05:04.807Z,100870
2017-08-17T13:07:32.907Z,100871
2017-08-17T13:10:00.993Z,100876
2017-08-17T13:12:29.083Z,100883
2017-08-17T13:14:57.194Z,100887
2017-08-17T13:17:25.275Z,100880
2017-08-17T13:19:56.394Z,100877
2017-08-17T13:22:24.503Z,100881
2017-08-17T13:24:52.586Z,100879
2017-08-17T13:27:20.696Z,100883
2017-08-17T13:29:48.777Z,100889
2017-08-17T13:32:16.887Z,100893
2017-08-17T13:34:45.003Z,100894
2017-08-17T13:37:13.099Z,100894
2017-08-17T13:39:41.175Z,100892
2017-08-17T13:42:09.280Z,100894
2017-08-17T13:44:37.370Z,100895
2017-08-17T13:47:06.385Z,100897
2017-08-17T13:49:36.567Z,100894
2017-08-17T13:52:04.647Z,100895
2017-08-17T13:54:33.599Z,100889
2017-08-17T13:57:02.446Z,100892
2017-08-17T13:59:30.519Z,100883
2017-08-17T14:01:58.635Z,100875
2017-08-17T14:04:26.735Z,100872
2017-08-17T14:06:55.839Z,100880
2017-08-17T14:09:25.468Z,100872
2017-08-17T14:11:53.588Z,100878
2017-08-17T14:14:33.767Z,100888
2017-08-17T14:17:01.924Z,100884
2017-08-17T14:19:30.839Z,100879
2017-08-17T14:21:58.959Z,100878
2017-08-17T14:24:30.099Z,100882
2017-08-17T14:26:58.226Z,100884
2017-08-17T14:29:26.324Z,100875
2017-08-17T14:31:54.443Z,100887
2017-08-17T14:34:22.531Z,100895
2017-08-17T14:36:50.628Z,100904
2017-08-17T14:39:18.734Z,100898
2017-08-17T14:41:46.806Z,100904
2017-08-17T14:44:15.861Z,100902
2017-08-17T14:46:43.963Z,100899
2017-08-17T14:49:12.047Z,100905
2017-08-17T14:51:40.154Z,100906
2017-08-17T14:54:08.272Z,100900
2017-08-17T14:56:36.368Z,100902
2017-08-17T14:59:06.076Z,100906
2017-08-17T15:01:34.799Z,100896
2017-08-17T15:04:02.883Z,100901
2017-08-17T15:06:30.999Z,100894
2017-08-17T15:08:59.108Z,100901
2017-08-17T15:11:27.190Z,100894
2017-08-17T15:13:55.323Z,100900
2017-08-17T15:16:23.446Z,100896
2017-08-17T15:18:51.555Z,100897
2017-08-17T15:21:19.667Z,100886
2017-08-17T15:23:47.768Z,100878
2017-08-17T15:26:15.853Z,100882
2017-08-17T15:28:43.939Z,100886
2017-08-17T15:31:12.031Z,100896
2017-08-17T15:33:40.107Z,100894
2017-08-17T15:36:08.179Z,100884
2017-08-17T15:38:36.275Z,100881
2017-08-17T15:41:04.367Z,100893
2017-08-17T15:43:32.491Z,100887
2017-08-17T15:46:06.494Z,100887
2017-08-17T15:48:34.600Z,100888
2017-08-17T15:51:04.080Z,100871
2017-08-17T15:53:32.177Z,100872
2017-08-17T15:56:02.201Z,100877
2017-08-17T15:58:30.539Z,100867
2017-08-17T16:00:58.657Z,100902
2017-08-17T16:03:26.772Z,100921
2017-08-17T16:05:54.885Z,100913
2017-08-17T16:08:23.052Z,100899
2017-08-17T16:10:51.187Z,100890
2017-08-17T16:13:19.319Z,100880
2017-08-17T16:22:40.400Z,100810
2017-08-17T16:25:08.530Z,100860
2017-08-17T16:27:37.422Z,100860
2017-08-17T16:30:05.532Z,100853
2017-08-17T16:32:33.630Z,100851
2017-08-17T16:35:01.739Z,100847
2017-08-17T16:37:30.776Z,100848
2017-08-17T16:39:59.752Z,100855
2017-08-17T16:42:27.951Z,100852
2017-08-17T16:44:56.995Z,100853
2017-08-17T16:47:25.114Z,100847
2017-08-17T16:49:53.195Z,100828
2017-08-17T16:52:21.303Z,100838
2017-08-17T16:54:49.417Z,100850
2017-08-17T16:57:17.681Z,100862
2017-08-17T16:59:45.778Z,100865
2017-08-17T17:02:14.176Z,100869
2017-08-17T17:04:42.287Z,100879
2017-08-17T17:07:10.374Z,100894
2017-08-17T17:09:38.499Z,100896
2017-08-17T17:12:06.619Z,100900
2017-08-17T17:14:34.699Z,100874
2017-08-17T17:17:02.805Z,100859
2017-08-17T17:19:30.908Z,100853
2017-08-17T17:21:58.984Z,100853
2017-08-17T17:24:27.148Z,100869
2017-08-17T17:26:55.247Z,100885
2017-08-17T17:29:23.355Z,100876
2017-08-17T17:31:51.479Z,100879
2017-08-17T17:34:19.599Z,100871
2017-08-17T17:36:48.626Z,100870
2017-08-17T17:39:16.730Z,100871
2017-08-17T17:41:45.610Z,100855
2017-08-17T17:44:13.715Z,100859
2017-08-17T17:46:41.820Z,100882
2017-08-17T17:49:09.912Z,100871
2017-08-17T17:51:38.001Z,100866
2017-08-17T17:54:07.167Z,100862
2017-08-17T17:56:35.296Z,100866
2017-08-17T17:59:04.155Z,100868
2017-08-17T18:01:32.270Z,100867
2017-08-17T18:04:00.383Z,100871
2017-08-17T18:06:28.469Z,100873
2017-08-17T18:08:56.597Z,100871
2017-08-17T18:11:24.724Z,100865
2017-08-17T18:13:52.819Z,100866
2017-08-17T18:16:20.938Z,100866
2017-08-17T18:18:49.008Z,100869
2017-08-17T18:21:17.116Z,100861
2017-08-17T18:23:45.187Z,100865
2017-08-17T18:26:13.288Z,100867
2017-08-17T18:28:41.380Z,100870
2017-08-17T18:31:09.474Z,100875
2017-08-17T18:33:38.370Z,100870
2017-08-17T18:36:06.471Z,100869
2017-08-17T18:38:34.560Z,100872
2017-08-17T18:41:02.662Z,100863
2017-08-17T18:43:30.741Z,100870
2017-08-17T18:45:58.831Z,100870
2017-08-17T18:48:26.927Z,100871
2017-08-17T18:50:55.043Z,100870
2017-08-17T18:53:23.130Z,100859
2017-08-17T18:55:51.222Z,100867
2017-08-17T18:58:19.369Z,100873
2017-08-17T19:00:47.496Z,100877
2017-08-17T19:03:15.592Z,100870
2017-08-17T19:05:43.766Z,100865
2017-08-17T19:08:11.867Z,100874
2017-08-17T19:10:40.863Z,100874
2017-08-17T19:13:09.003Z,100878
2017-08-17T19:15:37.108Z,100876
2017-08-17T19:18:10.871Z,100871
2017-08-17T19:20:38.960Z,100874
2017-08-17T19:23:07.051Z,100883
2017-08-17T19:25:35.171Z,100877
2017-08-17T19:28:03.334Z,100883
2017-08-17T19:30:31.481Z,100898
2017-08-17T19:32:59.576Z,100882
2017-08-17T19:35:27.670Z,100883
2017-08-17T19:37:56.899Z,100882
2017-08-17T19:40:27.708Z,100881
2017-08-17T19:42:57.770Z,100882
2017-08-17T19:45:25.907Z,100885
2017-08-17T19:47:54.015Z,100879
2017-08-17T19:50:22.106Z,100890
2017-08-17T19:52:50.189Z,100877
2017-08-17T19:55:18.284Z,100886
2017-08-17T19:57:46.409Z,100888
2017-08-17T20:00:14.513Z,100873
2017-08-17T20:02:43.661Z,100879
2017-08-17T20:05:12.046Z,100871
2017-08-17T20:07:40.140Z,100873
2017-08-17T20:10:08.212Z,100872
2017-08-17T20:12:36.359Z,100880
2017-08-17T20:15:08.339Z,100872
2017-08-17T20:17:36.464Z,100884
2017-08-17T20:21:08.038Z,100888
2017-08-17T20:23:36.152Z,100874
2017-08-17T20:26:04.288Z,100882
2017-08-17T20:28:32.383Z,100872
2017-08-17T20:31:00.466Z,100865
2017-08-17T20:33:28.556Z,100863
2017-08-17T20:35:56.677Z,100869
2017-08-17T20:38:24.779Z,100861
2017-08-17T20:40:52.905Z,100867
2017-08-17T20:43:21.263Z,100861
2017-08-17T20:45:50.346Z,100864
2017-08-17T20:48:18.454Z,100861
2017-08-17T20:50:48.233Z,100854
2017-08-17T20:53:16.401Z,100850
2017-08-17T20:55:44.502Z,100847
2017-08-17T20:58:12.604Z,100852
2017-08-17T21:00:40.742Z,100839
2017-08-17T21:03:12.436Z,100851
2017-08-17T21:05:42.222Z,100849
2017-08-17T21:08:11.080Z,100844
2017-08-17T21:10:39.182Z,100849
2017-08-17T21:13:07.340Z,100844
2017-08-17T21:15:35.452Z,100828
2017-08-17T21:18:03.527Z,100835
2017-08-17T21:20:31.747Z,100833
2017-08-17T21:22:59.855Z,100833
2017-08-17T21:25:29.764Z,100844
2017-08-17T21:27:57.919Z,100834
2017-08-17T21:30:26.032Z,100832
2017-08-17T21:32:55.169Z,100834
2017-08-17T21:35:25.141Z,100834
2017-08-17T21:37:53.326Z,100837
2017-08-17T21:40:21.497Z,100843
2017-08-17T21:42:49.792Z,100835
2017-08-17T21:45:17.917Z,100835
2017-08-17T21:47:46.006Z,100845
2017-08-17T21:50:14.104Z,100835
2017-08-17T21:52:42.206Z,100827
2017-08-17T21:55:11.205Z,100826
2017-08-17T21:57:40.202Z,100818
2017-08-17T22:00:08.303Z,100821
2017-08-17T22:02:37.200Z,100813
2017-08-17T22:05:05.723Z,100809
2017-08-17T22:07:34.939Z,100814
2017-08-17T22:10:03.309Z,100817
2017-08-17T22:12:32.474Z,100821
2017-08-17T22:15:00.615Z,100819
2017-08-17T22:17:29.697Z,100818
2017-08-17T22:19:57.843Z,100821
2017-08-17T22:22:27.279Z,100827
2017-08-17T22:24:57.357Z,100821
2017-08-17T22:27:25.898Z,100814
2017-08-17T22:29:54.981Z,100816
2017-08-17T22:32:26.833Z,100818
2017-08-17T22:34:54.957Z,100818
2017-08-17T22:37:24.784Z,100813
2017-08-17T22:39:52.903Z,100810
2017-08-17T22:42:20.982Z,100809
2017-08-17T22:44:50.672Z,100809
2017-08-17T22:47:19.610Z,100803
2017-08-17T22:49:47.694Z,100808
2017-08-17T22:52:15.796Z,100805
2017-08-17T22:54:44.793Z,100797
2017-08-17T22:57:13.339Z,100802
2017-08-17T22:59:41.448Z,100796
2017-08-17T23:02:09.534Z,100804
2017-08-17T23:04:39.320Z,100804
2017-08-17T23:07:07.534Z,100804
2017-08-17T23:09:36.457Z,100804
2017-08-17T23:12:04.578Z,100801
2017-08-17T23:14:33.360Z,100807
2017-08-17T23:17:01.446Z,100806
2017-08-17T23:19:31.331Z,100802
2017-08-17T23:21:59.545Z,100796
2017-08-17T23:24:27.688Z,100791
2017-08-17T23:26:55.780Z,100801
2017-08-17T23:29:23.924Z,100807
2017-08-17T23:31:52.064Z,100807
2017-08-17T23:34:20.155Z,100809
2017-08-17T23:36:51.541Z,100807
2017-08-17T23:39:19.667Z,100815
2017-08-17T23:41:47.916Z,100809
2017-08-17T23:44:16.048Z,100807
2017-08-17T23:46:45.065Z,100800
2017-08-17T23:49:13.150Z,100802
2017-08-17T23:51:43.141Z,100797
2017-08-17T23:54:11.388Z,100796
2017-08-17T23:56:39.541Z,100810
2017-08-17T23:59:08.995Z,100802
